createdAt,value
2022-11-29T00:00:38.239Z,36.53
2022-11-29T00:03:04.683Z,31.80
2022-11-29T00:05:34.077Z,37.05
2022-11-29T00:08:00.438Z,35.50
2022-11-29T00:10:26.796Z,36.65
2022-11-29T00:12:53.162Z,31.27
2022-11-29T00:15:19.558Z,31.58
2022-11-29T00:17:45.943Z,33.03
2022-11-29T00:20:12.640Z,32.85
2022-11-29T00:22:39.070Z,30.75
2022-11-29T00:25:06.375Z,34.83
2022-11-29T00:27:32.894Z,28.25
2022-11-29T00:29:59.302Z,31.33
2022-11-29T00:32:25.728Z,32.70
2022-11-29T00:34:52.259Z,34.00
2022-11-29T00:37:18.679Z,34.22
2022-11-29T00:39:45.116Z,33.22
2022-11-29T00:42:11.478Z,26.10
2022-11-29T00:44:37.858Z,29.75
2022-11-29T00:47:04.242Z,26.35
2022-11-29T00:49:30.625Z,23.60
2022-11-29T00:51:57.011Z,24.13
2022-11-29T00:54:23.360Z,29.10
2022-11-29T00:56:49.769Z,33.70
2022-11-29T00:59:16.125Z,29.17
2022-11-29T01:01:42.533Z,32.35
2022-11-29T01:04:09.105Z,30.42
2022-11-29T01:06:35.532Z,32.63
2022-11-29T01:09:01.932Z,25.25
2022-11-29T01:11:28.533Z,28.95
2022-11-29T01:14:08.336Z,31.25
2022-11-29T01:16:34.902Z,35.55
2022-11-29T01:19:01.386Z,29.52
2022-11-29T01:21:28.153Z,31.88
2022-11-29T01:23:55.168Z,34.50
2022-11-29T01:26:26.677Z,34.03
2022-11-29T01:28:54.949Z,41.00
2022-11-29T01:31:33.069Z,40.58
2022-11-29T01:34:01.115Z,44.35
2022-11-29T01:36:27.889Z,41.75
2022-11-29T01:38:54.301Z,43.80
2022-11-29T01:41:24.122Z,53.88
2022-11-29T01:43:58.768Z,48.60
2022-11-29T01:46:25.998Z,55.35
2022-11-29T01:48:55.298Z,63.00
2022-11-29T01:51:21.876Z,59.47
2022-11-29T01:53:48.440Z,60.00
2022-11-29T01:56:15.990Z,64.72
2022-11-29T01:58:43.682Z,62.75
2022-11-29T02:01:10.403Z,72.63
2022-11-29T02:03:36.956Z,65.05
2022-11-29T02:06:04.575Z,60.33
2022-11-29T02:08:38.812Z,64.30
2022-11-29T02:11:34.600Z,68.97
2022-11-29T02:14:14.025Z,63.22
2022-11-29T02:17:03.890Z,74.90
2022-11-29T02:20:10.080Z,74.93
2022-11-29T02:23:07.615Z,81.43
2022-11-29T02:25:41.464Z,57.20
2022-11-29T02:28:35.756Z,65.80
2022-11-29T02:31:30.676Z,61.33
2022-11-29T02:34:18.154Z,58.35
2022-11-29T02:36:55.534Z,55.95
2022-11-29T02:39:39.096Z,60.38
2022-11-29T02:42:20.486Z,61.05
2022-11-29T02:45:14.914Z,61.15
2022-11-29T02:48:00.153Z,68.32
2022-11-29T02:50:35.108Z,53.42
2022-11-29T02:53:31.011Z,53.10
2022-11-29T02:56:07.012Z,60.60
2022-11-29T02:58:51.221Z,72.82
2022-11-29T03:01:46.287Z,68.35
2022-11-29T03:04:23.686Z,63.10
2022-11-29T03:06:56.934Z,64.10
2022-11-29T03:09:43.498Z,69.18
2022-11-29T03:12:21.415Z,68.22
2022-11-29T03:15:17.086Z,67.50
2022-11-29T03:18:07.959Z,67.25
2022-11-29T03:20:34.219Z,88.10
2022-11-29T03:23:14.970Z,78.40
2022-11-29T03:25:53.501Z,83.45
2022-11-29T03:28:29.972Z,89.28
2022-11-29T03:31:12.905Z,83.43
2022-11-29T03:33:58.954Z,82.78
2022-11-29T03:36:40.256Z,93.95
2022-11-29T03:39:13.326Z,85.88
2022-11-29T03:41:53.310Z,87.95
2022-11-29T03:44:27.043Z,88.63
2022-11-29T03:47:15.333Z,92.88
2022-11-29T03:49:49.667Z,88.70
2022-11-29T03:52:54.823Z,85.18
2022-11-29T03:55:21.107Z,86.93
2022-11-29T03:58:13.086Z,82.82
2022-11-29T04:01:09.457Z,81.43
2022-11-29T04:03:54.555Z,93.00
2022-11-29T04:06:31.480Z,100.43
2022-11-29T04:09:32.067Z,103.72
2022-11-29T04:12:15.991Z,96.57
2022-11-29T04:14:54.860Z,98.57
2022-11-29T04:17:36.248Z,94.18
2022-11-29T04:20:14.067Z,95.80
2022-11-29T04:22:52.456Z,86.35
2022-11-29T04:25:40.710Z,93.65
2022-11-29T04:28:21.985Z,82.50
2022-11-29T04:31:12.656Z,87.72
2022-11-29T04:33:47.389Z,88.55
2022-11-29T04:36:35.745Z,95.53
2022-11-29T04:39:11.230Z,102.10
2022-11-29T04:42:08.676Z,95.40
2022-11-29T04:44:43.504Z,83.68
2022-11-29T04:47:34.970Z,77.97
2022-11-29T04:50:58.888Z,87.32
2022-11-29T04:53:49.328Z,85.30
2022-11-29T04:56:43.188Z,89.43
2022-11-29T04:59:20.478Z,94.15
2022-11-29T05:02:05.643Z,83.90
2022-11-29T05:04:53.570Z,77.03
2022-11-29T05:07:31.287Z,90.63
2022-11-29T05:10:42.121Z,82.28
2022-11-29T05:13:23.293Z,81.65
2022-11-29T05:16:07.321Z,84.32
2022-11-29T05:18:54.472Z,83.07
2022-11-29T05:21:45.731Z,76.32
2022-11-29T05:24:24.792Z,71.78
2022-11-29T05:27:09.072Z,86.43
2022-11-29T05:29:43.438Z,80.60
2022-11-29T05:32:32.662Z,79.00
2022-11-29T05:35:20.821Z,79.13
2022-11-29T05:38:13.561Z,78.97
2022-11-29T05:40:49.293Z,80.25
2022-11-29T05:43:30.446Z,83.07
2022-11-29T05:46:06.024Z,81.03
2022-11-29T05:49:01.296Z,75.88
2022-11-29T05:51:55.894Z,73.32
2022-11-29T05:54:38.196Z,73.95
2022-11-29T05:57:12.473Z,63.83
2022-11-29T05:59:39.521Z,61.05
2022-11-29T06:02:27.922Z,69.90
2022-11-29T06:04:57.265Z,63.70
2022-11-29T06:07:37.610Z,63.58
2022-11-29T06:10:23.880Z,59.83
2022-11-29T06:13:04.196Z,59.72
2022-11-29T06:15:58.648Z,60.72
2022-11-29T06:18:27.378Z,66.85
2022-11-29T06:21:06.342Z,66.07
2022-11-29T06:23:44.913Z,69.80
2022-11-29T06:26:46.688Z,68.18
2022-11-29T06:29:33.128Z,66.63
2022-11-29T06:32:40.126Z,65.70
2022-11-29T06:35:24.435Z,56.60
2022-11-29T06:37:52.570Z,53.17
2022-11-29T06:40:19.007Z,52.70
2022-11-29T06:42:45.444Z,54.30
2022-11-29T06:45:15.285Z,59.10
2022-11-29T06:48:17.049Z,66.65
2022-11-29T06:51:07.340Z,52.97
2022-11-29T06:53:40.984Z,49.42
2022-11-29T06:56:41.664Z,56.85
2022-11-29T06:59:17.948Z,61.30
2022-11-29T07:01:49.919Z,58.08
2022-11-29T07:04:32.347Z,74.07
2022-11-29T07:09:33.645Z,56.03
2022-11-29T07:12:00.382Z,56.10
2022-11-29T07:14:26.956Z,55.28
2022-11-29T07:17:01.376Z,58.80
2022-11-29T07:19:39.757Z,55.72
2022-11-29T07:22:41.120Z,66.68
2022-11-29T07:25:31.918Z,53.97
2022-11-29T07:28:06.948Z,54.67
2022-11-29T07:30:51.180Z,52.42
2022-11-29T07:33:22.283Z,55.03
2022-11-29T07:35:48.548Z,56.17
2022-11-29T07:38:31.662Z,57.13
2022-11-29T07:41:06.160Z,53.58
2022-11-29T07:44:02.037Z,60.03
2022-11-29T07:46:29.074Z,50.53
2022-11-29T07:48:55.557Z,61.03
2022-11-29T07:51:21.928Z,47.05
2022-11-29T07:53:48.353Z,58.38
2022-11-29T07:56:16.220Z,59.22
2022-11-29T07:58:42.842Z,55.88
2022-11-29T08:01:09.257Z,56.90
2022-11-29T08:03:35.737Z,63.30
2022-11-29T08:06:02.809Z,59.03
2022-11-29T08:08:29.293Z,53.72
2022-11-29T08:10:55.730Z,55.72
2022-11-29T08:13:22.140Z,53.88
2022-11-29T08:15:48.751Z,48.45
2022-11-29T08:18:15.678Z,57.92
2022-11-29T08:20:42.647Z,52.65
2022-11-29T08:23:11.283Z,55.47
2022-11-29T08:25:37.675Z,52.72
2022-11-29T08:28:04.568Z,61.42
2022-11-29T08:30:30.929Z,48.70
2022-11-29T08:32:57.321Z,49.85
2022-11-29T08:35:24.578Z,48.03
2022-11-29T08:37:51.000Z,49.30
2022-11-29T08:40:18.014Z,50.88
2022-11-29T08:42:44.403Z,54.53
2022-11-29T08:45:11.332Z,46.83
2022-11-29T08:47:38.341Z,53.15
2022-11-29T08:50:05.943Z,41.20
2022-11-29T08:52:55.327Z,47.70
2022-11-29T08:55:23.263Z,39.47
2022-11-29T08:57:51.094Z,49.30
2022-11-29T09:00:18.717Z,49.72
2022-11-29T09:02:45.110Z,47.05
2022-11-29T09:05:11.662Z,59.17
2022-11-29T09:07:38.551Z,53.17
2022-11-29T09:10:08.127Z,47.95
2022-11-29T09:12:38.801Z,45.92
2022-11-29T09:15:07.016Z,39.63
2022-11-29T09:17:33.448Z,45.58
2022-11-29T09:19:59.905Z,41.63
2022-11-29T09:22:26.264Z,38.95
2022-11-29T09:24:52.765Z,50.45
2022-11-29T09:27:19.220Z,47.72
2022-11-29T09:29:45.616Z,49.47
2022-11-29T09:32:11.985Z,48.15
2022-11-29T09:34:38.361Z,45.65
2022-11-29T09:37:05.409Z,40.50
2022-11-29T09:39:31.811Z,52.85
2022-11-29T09:42:47.852Z,46.10
2022-11-29T09:45:19.747Z,44.38
2022-11-29T09:48:19.715Z,47.33
2022-11-29T09:50:59.336Z,44.90
2022-11-29T09:53:43.911Z,44.42
2022-11-29T09:56:25.698Z,43.85
2022-11-29T09:58:59.212Z,48.33
2022-11-29T10:01:32.512Z,44.83
2022-11-29T10:04:03.999Z,43.28
2022-11-29T10:06:39.979Z,43.75
2022-11-29T10:09:33.907Z,35.42
2022-11-29T10:12:16.360Z,33.90
2022-11-29T10:14:59.264Z,42.65
2022-11-29T10:17:37.731Z,33.42
2022-11-29T10:20:15.638Z,42.13
2022-11-29T10:22:53.344Z,47.72
2022-11-29T10:25:36.077Z,39.13
2022-11-29T10:28:04.428Z,41.72
2022-11-29T10:30:33.876Z,55.05
2022-11-29T10:33:00.789Z,45.33
2022-11-29T10:35:27.334Z,41.22
2022-11-29T10:38:22.703Z,46.65
2022-11-29T10:40:46.911Z,41.45
2022-11-29T10:43:13.321Z,48.10
2022-11-29T10:45:50.848Z,31.55
2022-11-29T10:48:19.178Z,37.40
2022-11-29T10:50:48.401Z,55.47
2022-11-29T10:53:20.537Z,37.28
2022-11-29T10:55:51.221Z,45.55
2022-11-29T10:58:24.726Z,44.33
2022-11-29T11:01:01.612Z,43.47
2022-11-29T11:03:40.082Z,47.10
2022-11-29T11:06:16.190Z,49.00
2022-11-29T11:08:52.167Z,45.47
2022-11-29T11:11:32.067Z,48.65
2022-11-29T11:14:18.048Z,45.70
2022-11-29T11:16:44.463Z,46.40
2022-11-29T11:19:31.811Z,47.20
2022-11-29T11:22:00.382Z,48.53
2022-11-29T11:24:40.600Z,49.20
2022-11-29T11:27:07.289Z,54.15
2022-11-29T11:29:38.025Z,56.67
2022-11-29T11:32:05.382Z,55.72
2022-11-29T11:34:34.443Z,54.17
2022-11-29T11:37:20.712Z,52.20
2022-11-29T11:39:50.078Z,54.08
2022-11-29T11:42:37.822Z,49.42
2022-11-29T11:45:06.790Z,60.05
2022-11-29T11:47:36.478Z,56.55
2022-11-29T11:50:03.340Z,55.42
2022-11-29T11:52:50.472Z,75.03
2022-11-29T11:55:34.202Z,67.25
2022-11-29T11:58:13.692Z,67.07
2022-11-29T12:01:05.535Z,66.95
2022-11-29T12:03:50.954Z,74.57
2022-11-29T12:06:44.042Z,77.65
2022-11-29T12:09:36.538Z,71.82
2022-11-29T12:12:22.647Z,61.75
2022-11-29T12:15:01.997Z,63.85
2022-11-29T12:17:37.184Z,66.03
2022-11-29T12:20:25.511Z,75.07
2022-11-29T12:23:10.274Z,69.00
2022-11-29T12:25:47.139Z,75.07
2022-11-29T12:28:20.011Z,78.40
2022-11-29T12:31:03.433Z,61.38
2022-11-29T12:33:37.086Z,70.80
2022-11-29T12:36:24.741Z,71.00
2022-11-29T12:39:13.137Z,70.93
2022-11-29T12:41:54.337Z,73.30
2022-11-29T12:44:24.590Z,72.85
2022-11-29T12:47:39.638Z,67.05
2022-11-29T12:50:21.918Z,63.78
2022-11-29T12:52:54.375Z,65.03
2022-11-29T12:55:53.403Z,69.50
2022-11-29T12:58:33.506Z,69.70
2022-11-29T13:01:30.930Z,66.00
2022-11-29T13:04:14.957Z,65.82
2022-11-29T13:06:48.404Z,68.63
2022-11-29T13:09:42.185Z,59.63
2022-11-29T13:12:33.632Z,61.90
2022-11-29T13:15:05.204Z,70.78
2022-11-29T13:17:55.922Z,71.93
2022-11-29T13:20:34.398Z,66.82
2022-11-29T13:23:45.809Z,61.80
2022-11-29T13:26:17.545Z,63.72
2022-11-29T13:28:46.287Z,71.20
2022-11-29T13:31:16.163Z,70.15
2022-11-29T13:33:58.065Z,74.97
2022-11-29T13:36:42.619Z,75.88
2022-11-29T13:39:37.003Z,60.90
2022-11-29T13:42:32.587Z,64.75
2022-11-29T13:45:24.448Z,77.18
2022-11-29T13:48:01.215Z,74.82
2022-11-29T13:50:44.583Z,76.07
2022-11-29T13:53:17.019Z,84.18
2022-11-29T13:56:03.886Z,72.22
2022-11-29T13:58:39.590Z,73.18
2022-11-29T14:01:14.338Z,82.30
2022-11-29T14:03:42.626Z,75.88
2022-11-29T14:06:35.935Z,79.20
2022-11-29T14:09:25.548Z,83.70
2022-11-29T14:12:19.931Z,80.85
2022-11-29T14:14:53.953Z,85.47
2022-11-29T14:17:46.526Z,74.68
2022-11-29T14:23:14.541Z,79.00
2022-11-29T14:25:56.109Z,84.88
2022-11-29T14:28:22.378Z,82.50
2022-11-29T14:30:53.544Z,87.50
2022-11-29T14:33:27.004Z,77.45
2022-11-29T14:36:04.487Z,87.10
2022-11-29T14:38:43.938Z,78.60
2022-11-29T14:41:39.534Z,79.90
2022-11-29T14:44:25.920Z,75.07
2022-11-29T14:47:13.092Z,95.35
2022-11-29T14:49:41.571Z,88.72
2022-11-29T14:52:13.967Z,87.85
2022-11-29T14:54:56.382Z,84.75
2022-11-29T14:57:44.837Z,79.50
2022-11-29T15:00:14.668Z,84.40
2022-11-29T15:02:45.205Z,79.55
2022-11-29T15:05:21.699Z,87.63
2022-11-29T15:07:57.275Z,87.53
2022-11-29T15:10:26.997Z,87.13
2022-11-29T15:12:53.541Z,88.32
2022-11-29T15:15:32.349Z,89.10
2022-11-29T15:18:06.143Z,83.43
2022-11-29T15:20:40.483Z,76.03
2022-11-29T15:23:13.295Z,83.05
2022-11-29T15:25:47.525Z,92.03
2022-11-29T15:28:23.647Z,81.43
2022-11-29T15:30:59.922Z,78.88
2022-11-29T15:33:26.371Z,81.65
2022-11-29T15:35:55.186Z,87.18
2022-11-29T15:38:23.345Z,81.60
2022-11-29T15:40:54.276Z,86.50
2022-11-29T15:43:30.600Z,87.38
2022-11-29T15:45:58.108Z,77.28
2022-11-29T15:48:29.224Z,79.35
2022-11-29T15:51:02.576Z,84.93
2022-11-29T15:54:13.123Z,74.82
2022-11-29T15:56:45.749Z,86.20
2022-11-29T15:59:34.633Z,81.88
2022-11-29T16:02:07.679Z,81.30
2022-11-29T16:04:38.348Z,78.25
2022-11-29T16:07:07.635Z,82.43
2022-11-29T16:09:40.995Z,81.25
2022-11-29T16:12:12.684Z,84.45
2022-11-29T16:14:52.702Z,85.05
2022-11-29T16:17:20.808Z,86.00
2022-11-29T16:19:47.825Z,91.53
2022-11-29T16:22:22.490Z,85.68
2022-11-29T16:25:04.970Z,83.97
2022-11-29T16:27:33.477Z,102.38
2022-11-29T16:30:00.188Z,79.20
2022-11-29T16:32:27.851Z,82.53
2022-11-29T16:34:55.490Z,85.47
2022-11-29T16:37:26.652Z,73.57
2022-11-29T16:39:57.806Z,77.65
2022-11-29T16:42:29.227Z,67.90
2022-11-29T16:45:01.564Z,74.45
2022-11-29T16:47:29.915Z,70.43
2022-11-29T16:50:02.294Z,79.63
2022-11-29T16:52:31.111Z,70.95
2022-11-29T16:54:57.572Z,62.28
2022-11-29T16:57:24.358Z,72.68
2022-11-29T16:59:50.878Z,73.65
2022-11-29T17:02:17.321Z,79.45
2022-11-29T17:04:44.211Z,78.20
2022-11-29T17:07:26.327Z,78.03
2022-11-29T17:09:52.896Z,68.05
2022-11-29T17:12:19.493Z,63.13
2022-11-29T17:14:46.019Z,75.88
2022-11-29T17:17:16.789Z,58.83
2022-11-29T17:19:43.231Z,65.78
2022-11-29T17:22:09.807Z,69.05
2022-11-29T17:24:37.408Z,73.00
2022-11-29T17:27:04.002Z,68.20
2022-11-29T17:29:30.402Z,74.22
2022-11-29T17:31:56.854Z,64.72
2022-11-29T17:34:23.357Z,62.47
2022-11-29T17:36:49.789Z,60.15
2022-11-29T17:39:19.878Z,69.70
2022-11-29T17:41:46.471Z,75.55
2022-11-29T17:44:12.899Z,69.35
2022-11-29T17:46:39.338Z,69.15
2022-11-29T17:49:07.706Z,72.15
2022-11-29T17:51:52.219Z,74.30
2022-11-29T17:54:19.364Z,71.80
2022-11-29T17:56:45.735Z,65.95
2022-11-29T17:59:12.086Z,65.78
2022-11-29T18:01:38.510Z,61.58
2022-11-29T18:04:06.384Z,74.10
2022-11-29T18:06:38.482Z,61.13
2022-11-29T18:09:06.291Z,68.97
2022-11-29T18:11:43.225Z,62.95
2022-11-29T18:14:15.194Z,55.53
2022-11-29T18:16:41.728Z,61.20
2022-11-29T18:19:11.775Z,56.90
2022-11-29T18:21:38.155Z,68.40
2022-11-29T18:24:05.947Z,58.67
2022-11-29T18:26:33.172Z,57.15
2022-11-29T18:29:00.013Z,66.45
2022-11-29T18:31:29.118Z,65.70
2022-11-29T18:33:58.444Z,58.83
2022-11-29T18:36:29.727Z,67.82
2022-11-29T18:39:00.932Z,69.07
2022-11-29T18:41:28.429Z,68.28
2022-11-29T18:43:57.254Z,77.68
2022-11-29T18:46:24.733Z,67.47
2022-11-29T18:48:51.334Z,67.35
2022-11-29T18:51:19.605Z,73.82
2022-11-29T18:53:46.452Z,68.55
2022-11-29T18:56:18.214Z,66.70
2022-11-29T18:58:47.078Z,79.72
2022-11-29T19:01:15.541Z,78.53
2022-11-29T19:03:44.157Z,77.78
2022-11-29T19:06:13.394Z,76.88
2022-11-29T19:08:39.923Z,71.57
2022-11-29T19:11:06.719Z,79.60
2022-11-29T19:13:33.970Z,64.63
2022-11-29T19:16:01.150Z,62.55
2022-11-29T19:18:27.899Z,76.80
2022-11-29T19:20:54.371Z,67.82
2022-11-29T19:23:21.281Z,68.30
2022-11-29T19:25:47.791Z,83.38
2022-11-29T19:28:14.593Z,73.38
2022-11-29T19:30:41.063Z,77.78
2022-11-29T19:33:07.909Z,65.10
2022-11-29T19:35:34.597Z,70.07
2022-11-29T19:38:00.958Z,61.40
2022-11-29T19:40:27.702Z,72.65
2022-11-29T19:42:54.081Z,68.95
2022-11-29T19:45:21.738Z,62.85
2022-11-29T19:47:48.142Z,73.43
2022-11-29T19:50:14.497Z,68.45
2022-11-29T19:52:40.850Z,73.55
2022-11-29T19:55:07.704Z,75.75
2022-11-29T19:57:34.120Z,68.30
2022-11-29T20:00:00.613Z,81.13
2022-11-29T20:02:27.719Z,81.25
2022-11-29T20:04:54.187Z,77.72
2022-11-29T20:07:20.569Z,75.30
2022-11-29T20:09:47.420Z,76.97
2022-11-29T20:12:14.108Z,87.10
2022-11-29T20:14:40.458Z,90.45
2022-11-29T20:17:06.861Z,78.85
2022-11-29T20:19:34.207Z,98.10
2022-11-29T20:22:00.621Z,84.03
2022-11-29T20:24:26.967Z,91.18
2022-11-29T20:26:53.378Z,97.07
2022-11-29T20:29:21.400Z,77.15
2022-11-29T20:31:50.769Z,105.90
2022-11-29T20:34:18.204Z,93.47
2022-11-29T20:36:52.069Z,96.72
2022-11-29T20:40:12.702Z,90.05
2022-11-29T20:42:53.846Z,96.22
2022-11-29T20:45:20.527Z,83.90
2022-11-29T20:47:50.250Z,88.38
2022-11-29T20:50:30.748Z,99.88
2022-11-29T20:53:26.596Z,86.72
2022-11-29T20:55:52.953Z,89.63
2022-11-29T20:58:19.377Z,93.18
2022-11-29T21:00:46.202Z,104.13
2022-11-29T21:03:14.478Z,92.13
2022-11-29T21:05:40.898Z,96.22
2022-11-29T21:08:07.351Z,90.68
2022-11-29T21:10:33.843Z,98.28
2022-11-29T21:13:00.438Z,99.35
2022-11-29T21:15:27.350Z,92.57
2022-11-29T21:17:53.945Z,103.95
2022-11-29T21:20:25.753Z,101.60
2022-11-29T21:22:58.920Z,100.80
2022-11-29T21:25:43.925Z,106.28
2022-11-29T21:28:14.789Z,111.63
2022-11-29T21:30:42.278Z,101.68
2022-11-29T21:33:08.957Z,87.60
2022-11-29T21:35:39.478Z,103.80
2022-11-29T21:38:06.881Z,98.15
2022-11-29T21:40:33.281Z,102.72
2022-11-29T21:42:59.652Z,102.72
2022-11-29T21:45:26.055Z,103.07
2022-11-29T21:47:52.436Z,98.28
2022-11-29T21:50:18.794Z,100.93
2022-11-29T21:52:45.252Z,87.65
2022-11-29T21:55:11.972Z,100.13
2022-11-29T21:57:38.812Z,100.07
2022-11-29T22:00:05.865Z,99.00
2022-11-29T22:02:32.376Z,108.68
2022-11-29T22:04:58.807Z,99.30
2022-11-29T22:07:25.245Z,106.72
2022-11-29T22:09:51.725Z,95.35
2022-11-29T22:12:34.903Z,100.90
2022-11-29T22:15:01.691Z,103.72
2022-11-29T22:17:28.082Z,97.88
2022-11-29T22:19:54.443Z,113.10
2022-11-29T22:22:20.824Z,106.93
2022-11-29T22:24:47.508Z,96.78
2022-11-29T22:27:14.176Z,106.38
2022-11-29T22:29:40.530Z,99.72
2022-11-29T22:32:06.884Z,113.60
2022-11-29T22:34:33.234Z,110.35
2022-11-29T22:36:59.580Z,103.57
2022-11-29T22:39:26.048Z,116.13
2022-11-29T22:41:54.693Z,105.82
2022-11-29T22:44:22.403Z,121.00
2022-11-29T22:46:48.881Z,113.00
2022-11-29T22:49:15.284Z,102.45
2022-11-29T22:51:41.674Z,108.95
2022-11-29T22:54:10.311Z,113.60
2022-11-29T22:56:38.879Z,112.95
2022-11-29T22:59:05.604Z,108.57
2022-11-29T23:01:33.649Z,111.05
2022-11-29T23:04:02.901Z,122.93
2022-11-29T23:06:31.836Z,110.05
2022-11-29T23:09:00.066Z,108.47
2022-11-29T23:11:28.105Z,120.93
2022-11-29T23:13:55.285Z,110.85
2022-11-29T23:16:24.568Z,118.38
2022-11-29T23:18:51.269Z,116.55
2022-11-29T23:21:23.258Z,120.47
2022-11-29T23:23:55.849Z,116.88
2022-11-29T23:26:25.013Z,126.03
2022-11-29T23:28:51.727Z,110.78
2022-11-29T23:31:18.654Z,116.35
2022-11-29T23:33:45.167Z,122.93
2022-11-29T23:36:12.436Z,108.68
2022-11-29T23:38:39.445Z,117.68
2022-11-29T23:41:06.435Z,116.75
2022-11-29T23:43:35.141Z,113.45
2022-11-29T23:46:14.938Z,110.28
2022-11-29T23:48:41.680Z,112.68
2022-11-29T23:51:08.081Z,109.30
2022-11-29T23:53:34.530Z,107.00
2022-11-29T23:56:05.901Z,120.25
2022-11-29T23:58:33.028Z,117.45
